Amos, Canada
Current Conditions -  °F | °C
As of 1:03 AM on Monday 22 Dec 2014 (Local Time) from CYVO Reporting Station
Overcast Overcast  
Wind Chill:   Ceiling: 2600
Heat Index: 12°   Visibility: 9mi
Dew Point: 10°   Wind: 7mph
Humidity: 92%   Direction: 160°SSE
Pressure: 30.23"   Gusts: NA
Location:  48.57°N, 78.12°W
Report Text: CYVO 220603Z AUTO 16006KT 9SM OVC026 M11/M12 A3023 RMK SLP267
Loading
Personal Weather Stations






























Interactive Weather Map New forecast layout! Learn more

10-Day Weather Forecast

Advertisements
Track Severe Weather on mobile